Vuilleumier, Laurent (2010): Meteorological synoptical observations from station Payerne (2009-06) [dataset]. Swiss Meteorological Agency, Payerne, PANGAEA, https://doi.org/10.1594/PANGAEA.735247
Always quote citation above when using data! You can download the citation in several formats below.
Published: 2010-03-19 • DOI registered: 2010-04-16
Other version:
Vuilleumier, Laurent (2010): BSRN Station-to-archive file for station Payerne (2009-06) [dataset]. ftp://ftp.bsrn.awi.de/pay/pay0609.dat.gz
Project(s):
Coverage:
Latitude: 46.812300 * Longitude: 6.942200
Date/Time Start: 2009-06-01T00:00:00 * Date/Time End: 2009-06-30T21:00:00
Minimum Elevation: 491.0 m * Maximum Elevation: 491.0 m
Event(s):
PAY (Payerne) * Latitude: 46.812300 * Longitude: 6.942200 * Date/Time: 1992-09-01T00:00:00 * Elevation: 491.0 m * Location: Switzerland * Method/Device: Monitoring station (MONS) * Comment: BSRN station no: 21; Surface type: cultivated; Topography type: hilly, rural; Horizon: doi:10.1594/PANGAEA.947035; Station scientist: Laurent Vuilleumier (laurent.vuilleumier@meteoswiss.ch)
Parameter(s):
| # | Name | Short Name | Unit | Principal Investigator | Method/Device | Comment |
|---|---|---|---|---|---|---|
| 1 | DATE/TIME | Date/Time | Geocode | |||
| 2 | Wind direction | dd | deg | Vuilleumier, Laurent | Anemometer | |
| 3 | Wind speed | ff | m/s | Vuilleumier, Laurent | Anemometer | |
| 4 | Temperature, air | TTT | °C | Vuilleumier, Laurent | Thermometer | |
| 5 | Dew/frost point | TdTdTd | °C | Vuilleumier, Laurent | Hygrometer (HYGRO) | |
| 6 | Station pressure | PoPoPoPo | hPa | Vuilleumier, Laurent | Barometer (BARO) | |
| 7 | Pressure, atmospheric | PPPP | hPa | Vuilleumier, Laurent | Barometer (BARO) | |
| 8 | Code | Code | Vuilleumier, Laurent | YYGG9 iRixhVV Nddff 1SnTTT 2SnTdTdTd 3P0P0P0 4PPPP 7wwW1W2 8NhClCmCh 333 8NsChshs 8NsChshs 8NsChshs |
License:
Size:
1680 data points
Data
| 1 Date/Time | 2 dd [deg] | 3 ff [m/s] | 4 TTT [°C] | 5 TdTdTd [°C] | 6 PoPoPoPo [hPa] | 7 PPPP [hPa] | 8 Code |
|---|---|---|---|---|---|---|---|
| 2009-06-01T00:00 | 70 | 3 | 11.0 | 5.4 | 960 | 1018 | 01009 44/// /0703 10110 20054 39601 40180 7//// 8//// 333 8//// 8//// 8//// |
| 2009-06-01T03:00 | 230 | 1 | 9.1 | 4.6 | 959 | 1018 | 01039 44/// /2301 10091 20046 39593 40176 7//// 8//// 333 8//// 8//// 8//// |
| 2009-06-01T06:00 | 350 | 3 | 11.2 | 6.2 | 960 | 1018 | 01069 44/// /3503 10112 20062 39601 40179 7//// 8//// 333 8//// 8//// 8//// |
| 2009-06-01T09:00 | 30 | 11 | 15.6 | 5.8 | 960 | 1016 | 01099 44/// /0311 10156 20058 39595 40164 7//// 8//// 333 8//// 8//// 8//// |
| 2009-06-01T12:00 | 50 | 13 | 19.7 | 7.9 | 958 | 1014 | 01129 44/// /0513 10197 20079 39582 40141 7//// 8//// 333 8//// 8//// 8//// |
| 2009-06-01T15:00 | 50 | 12 | 20.4 | 9.4 | 958 | 1014 | 01159 44/// /0512 10204 20094 39580 40138 7//// 8//// 333 8//// 8//// 8//// |
| 2009-06-01T18:00 | 40 | 7 | 18.6 | 9.7 | 958 | 1014 | 01189 44/// /0407 10186 20097 39582 40144 7//// 8//// 333 8//// 8//// 8//// |
| 2009-06-01T21:00 | 70 | 6 | 14.6 | 9.4 | 959 | 1016 | 01219 44/// /0706 10146 20094 39591 40162 7//// 8//// 333 8//// 8//// 8//// |
| 2009-06-02T00:00 | 20 | 3 | 13.2 | 9.3 | 959 | 1017 | 02009 44/// /0203 10132 20093 39592 40166 7//// 8//// 333 8//// 8//// 8//// |
| 2009-06-02T03:00 | 40 | 4 | 10.2 | 8.6 | 959 | 1017 | 02039 44/// /0404 10102 20086 39587 40167 7//// 8//// 333 8//// 8//// 8//// |
| 2009-06-02T06:00 | 20 | 5 | 13.2 | 10.1 | 959 | 1017 | 02069 44/// /0205 10132 20101 39592 40166 7//// 8//// 333 8//// 8//// 8//// |
| 2009-06-02T09:00 | 40 | 9 | 19.0 | 9.0 | 959 | 1015 | 02099 44/// /0409 10190 20090 39592 40153 7//// 8//// 333 8//// 8//// 8//// |
| 2009-06-02T12:00 | 40 | 13 | 21.9 | 5.5 | 959 | 1015 | 02129 44/// /0413 10219 20055 39592 40147 7//// 8//// 333 8//// 8//// 8//// |
| 2009-06-02T15:00 | 30 | 12 | 22.3 | 7.0 | 959 | 1014 | 02159 44/// /0312 10223 20070 39589 40143 7//// 8//// 333 8//// 8//// 8//// |
| 2009-06-02T18:00 | 40 | 6 | 20.6 | 8.3 | 959 | 1015 | 02189 44/// /0406 10206 20083 39590 40148 7//// 8//// 333 8//// 8//// 8//// |
| 2009-06-02T21:00 | 210 | 2 | 15.0 | 8.7 | 960 | 1017 | 02219 44/// /2102 10150 20087 39599 40169 7//// 8//// 333 8//// 8//// 8//// |
| 2009-06-03T00:00 | 200 | 2 | 10.8 | 8.5 | 960 | 1018 | 03009 44/// /2002 10108 20085 39596 40175 7//// 8//// 333 8//// 8//// 8//// |
| 2009-06-03T03:00 | 10 | 0 | 8.6 | 7.6 | 959 | 1017 | 03039 44/// /0100 10086 20076 39590 40173 7//// 8//// 333 8//// 8//// 8//// |
| 2009-06-03T06:00 | 260 | 0 | 12.4 | 9.7 | 960 | 1017 | 03069 44/// /2600 10124 20097 39595 40170 7//// 8//// 333 8//// 8//// 8//// |
| 2009-06-03T09:00 | 50 | 5 | 19.0 | 9.4 | 959 | 1015 | 03099 44/// /0505 10190 20094 39588 40149 7//// 8//// 333 8//// 8//// 8//// |
| 2009-06-03T12:00 | 360 | 6 | 22.4 | 7.8 | 958 | 1014 | 03129 44/// /3606 10224 20078 39582 40136 7//// 8//// 333 8//// 8//// 8//// |
| 2009-06-03T15:00 | 20 | 4 | 23.0 | 7.1 | 957 | 1012 | 03159 44/// /0204 10230 20071 39571 40123 7//// 8//// 333 8//// 8//// 8//// |
| 2009-06-03T18:00 | 340 | 10 | 21.0 | 7.3 | 957 | 1012 | 03189 44/// /3410 10210 20073 39568 40124 7//// 8//// 333 8//// 8//// 8//// |
| 2009-06-03T21:00 | 40 | 2 | 16.4 | 6.9 | 958 | 1014 | 03219 44/// /0402 10164 20069 39575 40141 7//// 8//// 333 8//// 8//// 8//// |
| 2009-06-04T00:00 | 230 | 3 | 14.1 | 8.0 | 957 | 1014 | 04009 44/// /2303 10141 20080 39572 40142 7//// 8//// 333 8//// 8//// 8//// |
| 2009-06-04T03:00 | 190 | 2 | 11.7 | 8.6 | 957 | 1014 | 04039 44/// /1902 10117 20086 39567 40142 7//// 8//// 333 8//// 8//// 8//// |
| 2009-06-04T06:00 | 200 | 2 | 12.1 | 9.3 | 957 | 1015 | 04069 44/// /2002 10121 20093 39574 40149 7//// 8//// 333 8//// 8//// 8//// |
| 2009-06-04T09:00 | 310 | 4 | 17.8 | 5.2 | 958 | 1014 | 04099 44/// /3104 10178 20052 39577 40140 7//// 8//// 333 8//// 8//// 8//// |
| 2009-06-04T12:00 | 290 | 5 | 20.2 | 4.5 | 957 | 1012 | 04129 44/// /2905 10202 20045 39567 40124 7//// 8//// 333 8//// 8//// 8//// |
| 2009-06-04T15:00 | 330 | 6 | 21.7 | 5.5 | 956 | 1011 | 04159 44/// /3306 10217 20055 39556 40110 7//// 8//// 333 8//// 8//// 8//// |
| 2009-06-04T18:00 | 340 | 5 | 19.9 | 5.3 | 955 | 1011 | 04189 44/// /3405 10199 20053 39549 40106 7//// 8//// 333 8//// 8//// 8//// |
| 2009-06-04T21:00 | 60 | 2 | 14.6 | 5.2 | 955 | 1012 | 04219 44/// /0602 10146 20052 39553 40121 7//// 8//// 333 8//// 8//// 8//// |
| 2009-06-05T00:00 | 190 | 3 | 9.4 | 5.6 | 955 | 1013 | 05009 44/// /1903 10094 20056 39548 40127 7//// 8//// 333 8//// 8//// 8//// |
| 2009-06-05T03:00 | 210 | 2 | 7.1 | 5.2 | 954 | 1012 | 05039 44/// /2102 10071 20052 39540 40124 7//// 8//// 333 8//// 8//// 8//// |
| 2009-06-05T06:00 | 220 | 1 | 10.3 | 6.9 | 954 | 1011 | 05069 44/// /2201 10103 20069 39535 40111 7//// 8//// 333 8//// 8//// 8//// |
| 2009-06-05T09:00 | 20 | 3 | 16.4 | 7.5 | 952 | 1009 | 05099 44/// /0203 10164 20075 39524 40087 7//// 8//// 333 8//// 8//// 8//// |
| 2009-06-05T12:00 | 20 | 2 | 19.5 | 7.4 | 950 | 1006 | 05129 44/// /0202 10195 20074 39505 40060 7//// 8//// 333 8//// 8//// 8//// |
| 2009-06-05T15:00 | 260 | 2 | 21.0 | 9.6 | 949 | 1004 | 05159 44/// /2602 10210 20096 39486 40037 7//// 8//// 333 8//// 8//// 8//// |
| 2009-06-05T18:00 | 200 | 9 | 19.0 | 9.6 | 947 | 1003 | 05189 44/// /2009 10190 20096 39474 40028 7//// 8//// 333 8//// 8//// 8//// |
| 2009-06-05T21:00 | 80 | 4 | 15.9 | 11.8 | 946 | 1002 | 05219 44/// /0804 10159 20118 39463 40023 7//// 8//// 333 8//// 8//// 8//// |
| 2009-06-06T00:00 | 260 | 3 | 14.0 | 13.1 | 944 | 1001 | 06009 44/// /2603 10140 20131 39444 40007 7//// 8//// 333 8//// 8//// 8//// |
| 2009-06-06T03:00 | 230 | 1 | 12.7 | 12.1 | 944 | 1001 | 06039 44/// /2301 10127 20121 39441 40007 7//// 8//// 333 8//// 8//// 8//// |
| 2009-06-06T06:00 | 220 | 8 | 12.7 | 11.1 | 943 | 1000 | 06069 44/// /2208 10127 20111 39432 49997 7//// 8//// 333 8//// 8//// 8//// |
| 2009-06-06T09:00 | 210 | 13 | 16.3 | 11.6 | 943 | 999 | 06099 44/// /2113 10163 20116 39434 49992 7//// 8//// 333 8//// 8//// 8//// |
| 2009-06-06T12:00 | 230 | 13 | 19.2 | 10.2 | 944 | 999 | 06129 44/// /2313 10192 20102 39435 49987 7//// 8//// 333 8//// 8//// 8//// |
| 2009-06-06T15:00 | 210 | 9 | 18.2 | 11.5 | 944 | 999 | 06159 44/// /2109 10182 20115 39438 49992 7//// 8//// 333 8//// 8//// 8//// |
| 2009-06-06T18:00 | 230 | 13 | 12.9 | 10.2 | 946 | 1002 | 06189 44/// /2313 10129 20102 39456 40022 7//// 8//// 333 8//// 8//// 8//// |
| 2009-06-06T21:00 | 230 | 4 | 12.2 | 10.4 | 947 | 1004 | 06219 44/// /2304 10122 20104 39468 40036 7//// 8//// 333 8//// 8//// 8//// |
| 2009-06-07T00:00 | 210 | 8 | 11.6 | 10.5 | 948 | 1005 | 07009 44/// /2108 10116 20105 39480 40050 7//// 8//// 333 8//// 8//// 8//// |
| 2009-06-07T03:00 | 190 | 2 | 10.3 | 9.6 | 948 | 1006 | 07039 44/// /1902 10103 20096 39484 40057 7//// 8//// 333 8//// 8//// 8//// |
| 2009-06-07T06:00 | 230 | 4 | 12.3 | 10.5 | 949 | 1006 | 07069 44/// /2304 10123 20105 39491 40060 7//// 8//// 333 8//// 8//// 8//// |
| 2009-06-07T09:00 | 230 | 11 | 15.0 | 9.5 | 950 | 1007 | 07099 44/// /2311 10150 20095 39503 40067 7//// 8//// 333 8//// 8//// 8//// |
| 2009-06-07T12:00 | 240 | 16 | 16.7 | 8.4 | 951 | 1007 | 07129 44/// /2416 10167 20084 39509 40070 7//// 8//// 333 8//// 8//// 8//// |
| 2009-06-07T15:00 | 210 | 15 | 18.5 | 8.8 | 951 | 1007 | 07159 44/// /2115 10185 20088 39509 40066 7//// 8//// 333 8//// 8//// 8//// |
| 2009-06-07T18:00 | 220 | 7 | 15.0 | 9.9 | 952 | 1009 | 07189 44/// /2207 10150 20099 39525 40091 7//// 8//// 333 8//// 8//// 8//// |
| 2009-06-07T21:00 | 230 | 5 | 13.0 | 10.3 | 954 | 1011 | 07219 44/// /2305 10130 20103 39539 40110 7//// 8//// 333 8//// 8//// 8//// |
| 2009-06-08T00:00 | 190 | 3 | 12.4 | 9.8 | 954 | 1011 | 08009 44/// /1903 10124 20098 39539 40111 7//// 8//// 333 8//// 8//// 8//// |
| 2009-06-08T03:00 | 180 | 3 | 10.8 | 9.3 | 954 | 1011 | 08039 44/// /1803 10108 20093 39535 40110 7//// 8//// 333 8//// 8//// 8//// |
| 2009-06-08T06:00 | 260 | 1 | 11.9 | 9.5 | 954 | 1011 | 08069 44/// /2601 10119 20095 39541 40114 7//// 8//// 333 8//// 8//// 8//// |
| 2009-06-08T09:00 | 40 | 2 | 16.6 | 9.9 | 953 | 1010 | 08099 44/// /0402 10166 20099 39533 40096 7//// 8//// 333 8//// 8//// 8//// |
| 2009-06-08T12:00 | 310 | 2 | 20.0 | 10.3 | 952 | 1008 | 08129 44/// /3102 10200 20103 39520 40075 7//// 8//// 333 8//// 8//// 8//// |
| 2009-06-08T15:00 | 200 | 5 | 17.0 | 11.1 | 952 | 1008 | 08159 44/// /2005 10170 20111 39521 40082 7//// 8//// 333 8//// 8//// 8//// |
| 2009-06-08T18:00 | 120 | 3 | 15.6 | 12.6 | 952 | 1009 | 08189 44/// /1203 10156 20126 39523 40087 7//// 8//// 333 8//// 8//// 8//// |
| 2009-06-08T21:00 | 140 | 1 | 14.1 | 13.5 | 953 | 1010 | 08219 44/// /1401 10141 20135 39530 40098 7//// 8//// 333 8//// 8//// 8//// |
| 2009-06-09T00:00 | 310 | 1 | 12.9 | 10.2 | 953 | 1010 | 09009 44/// /3101 10129 20102 39527 40097 7//// 8//// 333 8//// 8//// 8//// |
| 2009-06-09T03:00 | 200 | 5 | 11.5 | 10.6 | 955 | 1012 | 09039 44/// /2005 10115 20106 39547 40122 7//// 8//// 333 8//// 8//// 8//// |
| 2009-06-09T06:00 | 200 | 2 | 11.8 | 10.9 | 955 | 1013 | 09069 44/// /2002 10118 20109 39552 40126 7//// 8//// 333 8//// 8//// 8//// |
| 2009-06-09T09:00 | 220 | 3 | 16.4 | 11.3 | 956 | 1012 | 09099 44/// /2203 10164 20113 39558 40123 7//// 8//// 333 8//// 8//// 8//// |
| 2009-06-09T12:00 | 210 | 9 | 20.5 | 9.9 | 956 | 1011 | 09129 44/// /2109 10205 20099 39556 40112 7//// 8//// 333 8//// 8//// 8//// |
| 2009-06-09T15:00 | 230 | 12 | 21.9 | 7.4 | 955 | 1011 | 09159 44/// /2312 10219 20074 39553 40106 7//// 8//// 333 8//// 8//// 8//// |
| 2009-06-09T18:00 | 240 | 5 | 17.2 | 8.9 | 958 | 1014 | 09189 44/// /2405 10172 20089 39575 40139 7//// 8//// 333 8//// 8//// 8//// |
| 2009-06-09T21:00 | 210 | 11 | 14.8 | 7.2 | 960 | 1017 | 09219 44/// /2111 10148 20072 39596 40166 7//// 8//// 333 8//// 8//// 8//// |
| 2009-06-10T00:00 | 300 | 2 | 11.5 | 8.5 | 960 | 1018 | 10009 44/// /3002 10115 20085 39604 40182 7//// 8//// 333 8//// 8//// 8//// |
| 2009-06-10T03:00 | 210 | 3 | 10.6 | 9.3 | 960 | 1018 | 10039 44/// /2103 10106 20093 39605 40185 7//// 8//// 333 8//// 8//// 8//// |
| 2009-06-10T06:00 | 230 | 1 | 11.7 | 10.3 | 961 | 1019 | 10069 44/// /2301 10117 20103 39608 40186 7//// 8//// 333 8//// 8//// 8//// |
| 2009-06-10T09:00 | 270 | 2 | 17.6 | 10.6 | 961 | 1017 | 10099 44/// /2702 10176 20106 39608 40173 7//// 8//// 333 8//// 8//// 8//// |
| 2009-06-10T12:00 | 230 | 10 | 21.4 | 4.3 | 960 | 1016 | 10129 44/// /2310 10214 20043 39602 40159 7//// 8//// 333 8//// 8//// 8//// |
| 2009-06-10T15:00 | 230 | 10 | 21.5 | 5.9 | 959 | 1015 | 10159 44/// /2310 10215 20059 39590 40146 7//// 8//// 333 8//// 8//// 8//// |
| 2009-06-10T18:00 | 220 | 4 | 20.0 | 8.1 | 958 | 1014 | 10189 44/// /2204 10200 20081 39584 40143 7//// 8//// 333 8//// 8//// 8//// |
| 2009-06-10T21:00 | 200 | 6 | 18.9 | 9.9 | 958 | 1014 | 10219 44/// /2006 10189 20099 39575 40136 7//// 8//// 333 8//// 8//// 8//// |
| 2009-06-11T00:00 | 270 | 8 | 15.8 | 12.9 | 959 | 1016 | 11009 44/// /2708 10158 20129 39587 40155 7//// 8//// 333 8//// 8//// 8//// |
| 2009-06-11T03:00 | 220 | 15 | 16.0 | 12.7 | 958 | 1014 | 11039 44/// /2215 10160 20127 39576 40143 7//// 8//// 333 8//// 8//// 8//// |
| 2009-06-11T06:00 | 240 | 10 | 15.7 | 13.2 | 961 | 1018 | 11069 44/// /2410 10157 20132 39607 40176 7//// 8//// 333 8//// 8//// 8//// |
| 2009-06-11T09:00 | 270 | 10 | 17.3 | 10.5 | 963 | 1020 | 11099 44/// /2710 10173 20105 39628 40195 7//// 8//// 333 8//// 8//// 8//// |
| 2009-06-11T12:00 | 250 | 10 | 19.9 | 6.5 | 963 | 1020 | 11129 44/// /2510 10199 20065 39634 40196 7//// 8//// 333 8//// 8//// 8//// |
| 2009-06-11T15:00 | 290 | 11 | 20.4 | 6.1 | 964 | 1020 | 11159 44/// /2911 10204 20061 39638 40199 7//// 8//// 333 8//// 8//// 8//// |
| 2009-06-11T18:00 | 270 | 9 | 18.6 | 5.3 | 964 | 1021 | 11189 44/// /2709 10186 20053 39643 40208 7//// 8//// 333 8//// 8//// 8//// |
| 2009-06-11T21:00 | 190 | 2 | 14.1 | 6.0 | 966 | 1023 | 11219 44/// /1902 10141 20060 39657 40233 7//// 8//// 333 8//// 8//// 8//// |
| 2009-06-12T00:00 | 210 | 3 | 9.4 | 7.0 | 966 | 1024 | 12009 44/// /2103 10094 20070 39658 40244 7//// 8//// 333 8//// 8//// 8//// |
| 2009-06-12T03:00 | 210 | 1 | 8.3 | 6.8 | 966 | 1025 | 12039 44/// /2101 10083 20068 39662 40250 7//// 8//// 333 8//// 8//// 8//// |
| 2009-06-12T06:00 | 190 | 5 | 11.7 | 7.6 | 966 | 1024 | 12069 44/// /1905 10117 20076 39662 40243 7//// 8//// 333 8//// 8//// 8//// |
| 2009-06-12T09:00 | 70 | 2 | 17.0 | 7.4 | 966 | 1023 | 12099 44/// /0702 10170 20074 39660 40230 7//// 8//// 333 8//// 8//// 8//// |
| 2009-06-12T12:00 | 340 | 0 | 19.7 | 6.8 | 965 | 1021 | 12129 44/// /3400 10197 20068 39650 40213 7//// 8//// 333 8//// 8//// 8//// |
| 2009-06-12T15:00 | 240 | 2 | 22.0 | 8.9 | 964 | 1020 | 12159 44/// /2402 10220 20089 39639 40197 7//// 8//// 333 8//// 8//// 8//// |
| 2009-06-12T18:00 | 350 | 3 | 21.5 | 8.6 | 964 | 1020 | 12189 44/// /3503 10215 20086 39641 40200 7//// 8//// 333 8//// 8//// 8//// |
| 2009-06-12T21:00 | 70 | 2 | 16.3 | 9.3 | 965 | 1022 | 12219 44/// /0702 10163 20093 39648 40218 7//// 8//// 333 8//// 8//// 8//// |
| 2009-06-13T00:00 | 80 | 0 | 11.7 | 9.7 | 965 | 1023 | 13009 44/// /0800 10117 20097 39652 40232 7//// 8//// 333 8//// 8//// 8//// |
| 2009-06-13T03:00 | 190 | 2 | 9.3 | 8.5 | 964 | 1023 | 13039 44/// /1902 10093 20085 39645 40230 7//// 8//// 333 8//// 8//// 8//// |
| 2009-06-13T06:00 | 260 | 1 | 12.4 | 10.2 | 965 | 1023 | 13069 44/// /2601 10124 20102 39649 40228 7//// 8//// 333 8//// 8//// 8//// |
| 2009-06-13T09:00 | 70 | 2 | 18.9 | 11.1 | 965 | 1021 | 13099 44/// /0702 10189 20111 39649 40214 7//// 8//// 333 8//// 8//// 8//// |
| 2009-06-13T12:00 | 140 | 1 | 23.4 | 11.5 | 964 | 1020 | 13129 44/// /1401 10234 20115 39643 40198 7//// 8//// 333 8//// 8//// 8//// |
| 2009-06-13T15:00 | 200 | 1 | 26.0 | 10.2 | 963 | 1018 | 13159 44/// /2001 10260 20102 39631 40180 7//// 8//// 333 8//// 8//// 8//// |
| 2009-06-13T18:00 | 340 | 4 | 24.7 | 12.9 | 962 | 1018 | 13189 44/// /3404 10247 20129 39625 40177 7//// 8//// 333 8//// 8//// 8//// |
| 2009-06-13T21:00 | 210 | 1 | 18.0 | 12.5 | 963 | 1020 | 13219 44/// /2101 10180 20125 39629 40195 7//// 8//// 333 8//// 8//// 8//// |
| 2009-06-14T00:00 | 210 | 2 | 13.6 | 12.0 | 964 | 1021 | 14009 44/// /2102 10136 20120 39636 40211 7//// 8//// 333 8//// 8//// 8//// |
| 2009-06-14T03:00 | 180 | 2 | 12.3 | 11.0 | 964 | 1022 | 14039 44/// /1802 10123 20110 39637 40215 7//// 8//// 333 8//// 8//// 8//// |
| 2009-06-14T06:00 | 330 | 0 | 14.9 | 12.2 | 964 | 1021 | 14069 44/// /3300 10149 20122 39639 40212 7//// 8//// 333 8//// 8//// 8//// |
| 2009-06-14T09:00 | 360 | 2 | 22.6 | 15.7 | 964 | 1019 | 14099 44/// /3602 10226 20157 39636 40192 7//// 8//// 333 8//// 8//// 8//// |
| 2009-06-14T12:00 | 230 | 8 | 28.5 | 14.0 | 963 | 1018 | 14129 44/// /2308 10285 20140 39631 40175 7//// 8//// 333 8//// 8//// 8//// |
| 2009-06-14T15:00 | 310 | 6 | 29.0 | 14.3 | 962 | 1016 | 14159 44/// /3106 10290 20143 39622 40165 7//// 8//// 333 8//// 8//// 8//// |
| 2009-06-14T18:00 | 220 | 3 | 22.5 | 16.7 | 964 | 1020 | 14189 44/// /2203 10225 20167 39641 40198 7//// 8//// 333 8//// 8//// 8//// |
| 2009-06-14T21:00 | 210 | 0 | 19.6 | 16.8 | 964 | 1020 | 14219 44/// /2100 10196 20168 39638 40201 7//// 8//// 333 8//// 8//// 8//// |
| 2009-06-15T00:00 | 80 | 2 | 17.6 | 16.8 | 964 | 1021 | 15009 44/// /0802 10176 20168 39641 40208 7//// 8//// 333 8//// 8//// 8//// |
| 2009-06-15T03:00 | 170 | 2 | 17.2 | 16.8 | 964 | 1020 | 15039 44/// /1702 10172 20168 39635 40203 7//// 8//// 333 8//// 8//// 8//// |
| 2009-06-15T06:00 | 110 | 0 | 17.1 | 16.8 | 963 | 1020 | 15069 44/// /1100 10171 20168 39628 40195 7//// 8//// 333 8//// 8//// 8//// |
| 2009-06-15T09:00 | 340 | 4 | 18.6 | 17.3 | 962 | 1018 | 15099 44/// /3404 10186 20173 39619 40183 7//// 8//// 333 8//// 8//// 8//// |
| 2009-06-15T12:00 | 300 | 3 | 22.1 | 18.0 | 961 | 1017 | 15129 44/// /3003 10221 20180 39614 40170 7//// 8//// 333 8//// 8//// 8//// |
| 2009-06-15T15:00 | 280 | 5 | 25.1 | 17.7 | 958 | 1013 | 15159 44/// /2805 10251 20177 39579 40127 7//// 8//// 333 8//// 8//// 8//// |
| 2009-06-15T18:00 | 280 | 3 | 23.2 | 17.4 | 959 | 1014 | 15189 44/// /2803 10232 20174 39586 40138 7//// 8//// 333 8//// 8//// 8//// |
| 2009-06-15T21:00 | 200 | 10 | 16.5 | 15.4 | 963 | 1020 | 15219 44/// /2010 10165 20154 39631 40200 7//// 8//// 333 8//// 8//// 8//// |
| 2009-06-16T00:00 | 190 | 9 | 16.7 | 15.6 | 962 | 1019 | 16009 44/// /1909 10167 20156 39624 40192 7//// 8//// 333 8//// 8//// 8//// |
| 2009-06-16T03:00 | 230 | 3 | 16.4 | 15.7 | 962 | 1019 | 16039 44/// /2303 10164 20157 39625 40194 7//// 8//// 333 8//// 8//// 8//// |
| 2009-06-16T06:00 | 230 | 3 | 16.5 | 14.3 | 964 | 1021 | 16069 44/// /2303 10165 20143 39639 40208 7//// 8//// 333 8//// 8//// 8//// |
| 2009-06-16T09:00 | 270 | 8 | 19.4 | 11.5 | 965 | 1022 | 16099 44/// /2708 10194 20115 39653 40217 7//// 8//// 333 8//// 8//// 8//// |
| 2009-06-16T12:00 | 280 | 3 | 21.0 | 10.0 | 966 | 1022 | 16129 44/// /2803 10210 20100 39660 40221 7//// 8//// 333 8//// 8//// 8//// |
| 2009-06-16T15:00 | 320 | 5 | 22.0 | 10.2 | 966 | 1022 | 16159 44/// /3205 10220 20102 39658 40217 7//// 8//// 333 8//// 8//// 8//// |
| 2009-06-16T18:00 | 10 | 5 | 20.3 | 10.6 | 966 | 1022 | 16189 44/// /0105 10203 20106 39661 40224 7//// 8//// 333 8//// 8//// 8//// |
| 2009-06-16T21:00 | 60 | 3 | 16.1 | 11.1 | 967 | 1024 | 16219 44/// /0603 10161 20111 39672 40244 7//// 8//// 333 8//// 8//// 8//// |
| 2009-06-17T00:00 | 90 | 0 | 12.5 | 10.7 | 966 | 1024 | 17009 44/// /0900 10125 20107 39665 40244 7//// 8//// 333 8//// 8//// 8//// |
| 2009-06-17T03:00 | 30 | 2 | 12.8 | 9.3 | 966 | 1024 | 17039 44/// /0302 10128 20093 39659 40237 7//// 8//// 333 8//// 8//// 8//// |
| 2009-06-17T06:00 | 220 | 1 | 12.6 | 10.9 | 966 | 1024 | 17069 44/// /2201 10126 20109 39659 40238 7//// 8//// 333 8//// 8//// 8//// |
| 2009-06-17T09:00 | 330 | 2 | 17.8 | 10.7 | 966 | 1022 | 17099 44/// /3302 10178 20107 39655 40223 7//// 8//// 333 8//// 8//// 8//// |
| 2009-06-17T12:00 | 50 | 2 | 22.2 | 13.0 | 964 | 1020 | 17129 44/// /0502 10222 20130 39645 40203 7//// 8//// 333 8//// 8//// 8//// |
| 2009-06-17T15:00 | 300 | 3 | 24.4 | 15.1 | 963 | 1019 | 17159 44/// /3003 10244 20151 39634 40187 7//// 8//// 333 8//// 8//// 8//// |
| 2009-06-17T18:00 | 210 | 5 | 24.1 | 11.7 | 963 | 1018 | 17189 44/// /2105 10241 20117 39626 40179 7//// 8//// 333 8//// 8//// 8//// |
| 2009-06-17T21:00 | 210 | 4 | 17.3 | 13.0 | 964 | 1020 | 17219 44/// /2104 10173 20130 39637 40205 7//// 8//// 333 8//// 8//// 8//// |
| 2009-06-18T00:00 | 240 | 3 | 15.6 | 12.5 | 964 | 1021 | 18009 44/// /2403 10156 20125 39643 40214 7//// 8//// 333 8//// 8//// 8//// |
| 2009-06-18T03:00 | 180 | 1 | 14.5 | 12.3 | 964 | 1021 | 18039 44/// /1801 10145 20123 39639 40213 7//// 8//// 333 8//// 8//// 8//// |
| 2009-06-18T06:00 | 250 | 2 | 16.7 | 13.8 | 964 | 1021 | 18069 44/// /2502 10167 20138 39643 40212 7//// 8//// 333 8//// 8//// 8//// |
| 2009-06-18T09:00 | 300 | 1 | 23.2 | 15.6 | 964 | 1020 | 18099 44/// /3001 10232 20156 39645 40201 7//// 8//// 333 8//// 8//// 8//// |
| 2009-06-18T12:00 | 240 | 4 | 26.9 | 16.8 | 963 | 1018 | 18129 44/// /2404 10269 20168 39631 40179 7//// 8//// 333 8//// 8//// 8//// |
| 2009-06-18T15:00 | 300 | 10 | 26.4 | 18.4 | 962 | 1016 | 18159 44/// /3010 10264 20184 39617 40165 7//// 8//// 333 8//// 8//// 8//// |
| 2009-06-18T18:00 | 270 | 4 | 26.3 | 17.3 | 961 | 1016 | 18189 44/// /2704 10263 20173 39609 40156 7//// 8//// 333 8//// 8//// 8//// |
| 2009-06-18T21:00 | 200 | 5 | 22.6 | 15.1 | 961 | 1017 | 18219 44/// /2005 10226 20151 39613 40168 7//// 8//// 333 8//// 8//// 8//// |
| 2009-06-19T00:00 | 200 | 5 | 19.9 | 17.1 | 961 | 1017 | 19009 44/// /2005 10199 20171 39613 40174 7//// 8//// 333 8//// 8//// 8//// |
| 2009-06-19T03:00 | 210 | 5 | 18.5 | 17.1 | 961 | 1018 | 19039 44/// /2105 10185 20171 39614 40178 7//// 8//// 333 8//// 8//// 8//// |
| 2009-06-19T06:00 | 250 | 2 | 18.8 | 17.0 | 961 | 1017 | 19069 44/// /2502 10188 20170 39610 40173 7//// 8//// 333 8//// 8//// 8//// |
| 2009-06-19T09:00 | 250 | 2 | 18.9 | 14.9 | 962 | 1018 | 19099 44/// /2502 10189 20149 39620 40183 7//// 8//// 333 8//// 8//// 8//// |
| 2009-06-19T12:00 | 210 | 1 | 21.0 | 14.8 | 962 | 1018 | 19129 44/// /2101 10210 20148 39620 40179 7//// 8//// 333 8//// 8//// 8//// |
| 2009-06-19T15:00 | 20 | 4 | 18.5 | 12.5 | 962 | 1019 | 19159 44/// /0204 10185 20125 39624 40188 7//// 8//// 333 8//// 8//// 8//// |
| 2009-06-19T18:00 | 70 | 3 | 13.7 | 12.1 | 965 | 1022 | 19189 44/// /0703 10137 20121 39646 40222 7//// 8//// 333 8//// 8//// 8//// |
| 2009-06-19T21:00 | 170 | 1 | 12.4 | 11.5 | 966 | 1024 | 19219 44/// /1701 10124 20115 39661 40240 7//// 8//// 333 8//// 8//// 8//// |
| 2009-06-20T00:00 | 190 | 1 | 11.4 | 11.1 | 965 | 1023 | 20009 44/// /1901 10114 20111 39653 40234 7//// 8//// 333 8//// 8//// 8//// |
| 2009-06-20T03:00 | 200 | 2 | 9.8 | 9.7 | 964 | 1023 | 20039 44/// /2002 10098 20097 39642 40226 7//// 8//// 333 8//// 8//// 8//// |
| 2009-06-20T06:00 | 90 | 1 | 11.6 | 11.0 | 964 | 1022 | 20069 44/// /0901 10116 20110 39640 40220 7//// 8//// 333 8//// 8//// 8//// |
| 2009-06-20T09:00 | 60 | 5 | 15.9 | 9.2 | 964 | 1021 | 20099 44/// /0605 10159 20092 39639 40210 7//// 8//// 333 8//// 8//// 8//// |
| 2009-06-20T12:00 | 10 | 7 | 18.2 | 5.9 | 963 | 1020 | 20129 44/// /0107 10182 20059 39631 40196 7//// 8//// 333 8//// 8//// 8//// |
| 2009-06-20T15:00 | 360 | 7 | 18.2 | 7.1 | 962 | 1019 | 20159 44/// /3607 10182 20071 39623 40188 7//// 8//// 333 8//// 8//// 8//// |
| 2009-06-20T18:00 | 340 | 8 | 16.1 | 7.2 | 962 | 1019 | 20189 44/// /3408 10161 20072 39625 40194 7//// 8//// 333 8//// 8//// 8//// |
| 2009-06-20T21:00 | 70 | 6 | 13.5 | 6.8 | 964 | 1022 | 20219 44/// /0706 10135 20068 39641 40217 7//// 8//// 333 8//// 8//// 8//// |
| 2009-06-21T00:00 | 20 | 3 | 12.5 | 8.4 | 964 | 1022 | 21009 44/// /0203 10125 20084 39638 40216 7//// 8//// 333 8//// 8//// 8//// |
| 2009-06-21T03:00 | 90 | 2 | 10.3 | 8.7 | 963 | 1022 | 21039 44/// /0902 10103 20087 39634 40216 7//// 8//// 333 8//// 8//// 8//// |
| 2009-06-21T06:00 | 60 | 1 | 11.8 | 9.1 | 964 | 1022 | 21069 44/// /0601 10118 20091 39638 40217 7//// 8//// 333 8//// 8//// 8//// |
| 2009-06-21T09:00 | 40 | 5 | 15.2 | 8.2 | 964 | 1021 | 21099 44/// /0405 10152 20082 39639 40211 7//// 8//// 333 8//// 8//// 8//// |
| 2009-06-21T12:00 | 20 | 6 | 15.9 | 7.7 | 964 | 1021 | 21129 44/// /0206 10159 20077 39639 40210 7//// 8//// 333 8//// 8//// 8//// |
| 2009-06-21T15:00 | 110 | 2 | 16.8 | 7.8 | 963 | 1020 | 21159 44/// /1102 10168 20078 39632 40200 7//// 8//// 333 8//// 8//// 8//// |
| 2009-06-21T18:00 | 140 | 5 | 15.3 | 7.6 | 964 | 1021 | 21189 44/// /1405 10153 20076 39635 40207 7//// 8//// 333 8//// 8//// 8//// |
| 2009-06-21T21:00 | 170 | 2 | 11.3 | 8.5 | 964 | 1022 | 21219 44/// /1702 10113 20085 39640 40221 7//// 8//// 333 8//// 8//// 8//// |
| 2009-06-22T00:00 | 190 | 3 | 10.5 | 9.7 | 964 | 1022 | 22009 44/// /1903 10105 20097 39639 40221 7//// 8//// 333 8//// 8//// 8//// |
| 2009-06-22T03:00 | 110 | 1 | 10.9 | 10.0 | 963 | 1021 | 22039 44/// /1101 10109 20100 39631 40212 7//// 8//// 333 8//// 8//// 8//// |
| 2009-06-22T06:00 | 60 | 3 | 11.4 | 9.2 | 964 | 1022 | 22069 44/// /0603 10114 20092 39643 40224 7//// 8//// 333 8//// 8//// 8//// |
| 2009-06-22T09:00 | 40 | 4 | 13.4 | 7.5 | 965 | 1022 | 22099 44/// /0404 10134 20075 39647 40223 7//// 8//// 333 8//// 8//// 8//// |
| 2009-06-22T12:00 | 100 | 5 | 15.8 | 6.8 | 965 | 1022 | 22129 44/// /1005 10158 20068 39647 40218 7//// 8//// 333 8//// 8//// 8//// |
| 2009-06-22T15:00 | 90 | 9 | 14.8 | 6.8 | 965 | 1022 | 22159 44/// /0909 10148 20068 39646 40219 7//// 8//// 333 8//// 8//// 8//// |
| 2009-06-22T18:00 | 70 | 5 | 11.0 | 8.1 | 965 | 1023 | 22189 44/// /0705 10110 20081 39652 40234 7//// 8//// 333 8//// 8//// 8//// |
| 2009-06-22T21:00 | 70 | 3 | 8.9 | 7.5 | 966 | 1025 | 22219 44/// /0703 10089 20075 39659 40246 7//// 8//// 333 8//// 8//// 8//// |
| 2009-06-23T00:00 | 350 | 4 | 9.1 | 7.4 | 966 | 1024 | 23009 44/// /3504 10091 20074 39655 40241 7//// 8//// 333 8//// 8//// 8//// |
| 2009-06-23T03:00 | 40 | 4 | 10.1 | 8.2 | 964 | 1022 | 23039 44/// /0404 10101 20082 39640 40223 7//// 8//// 333 8//// 8//// 8//// |
| 2009-06-23T06:00 | 60 | 9 | 11.3 | 8.9 | 964 | 1022 | 23069 44/// /0609 10113 20089 39639 40219 7//// 8//// 333 8//// 8//// 8//// |
| 2009-06-23T09:00 | 60 | 12 | 15.2 | 8.6 | 964 | 1021 | 23099 44/// /0612 10152 20086 39635 40207 7//// 8//// 333 8//// 8//// 8//// |
| 2009-06-23T12:00 | 80 | 12 | 14.0 | 9.2 | 963 | 1021 | 23129 44/// /0812 10140 20092 39633 40207 7//// 8//// 333 8//// 8//// 8//// |
| 2009-06-23T15:00 | 60 | 12 | 14.9 | 8.4 | 963 | 1020 | 23159 44/// /0612 10149 20084 39626 40198 7//// 8//// 333 8//// 8//// 8//// |
| 2009-06-23T18:00 | 50 | 8 | 13.8 | 8.7 | 963 | 1020 | 23189 44/// /0508 10138 20087 39626 40200 7//// 8//// 333 8//// 8//// 8//// |
| 2009-06-23T21:00 | 60 | 8 | 11.7 | 9.9 | 962 | 1020 | 23219 44/// /0608 10117 20099 39623 40202 7//// 8//// 333 8//// 8//// 8//// |
| 2009-06-24T00:00 | 50 | 9 | 12.2 | 9.7 | 961 | 1018 | 24009 44/// /0509 10122 20097 39606 40183 7//// 8//// 333 8//// 8//// 8//// |
| 2009-06-24T03:00 | 30 | 7 | 11.9 | 10.0 | 959 | 1016 | 24039 44/// /0307 10119 20100 39587 40163 7//// 8//// 333 8//// 8//// 8//// |
| 2009-06-24T06:00 | 60 | 7 | 12.8 | 9.7 | 958 | 1015 | 24069 44/// /0607 10128 20097 39576 40149 7//// 8//// 333 8//// 8//// 8//// |
| 2009-06-24T09:00 | 20 | 10 | 14.9 | 10.5 | 957 | 1014 | 24099 44/// /0210 10149 20105 39574 40143 7//// 8//// 333 8//// 8//// 8//// |
| 2009-06-24T12:00 | 30 | 7 | 19.8 | 12.9 | 956 | 1012 | 24129 44/// /0307 10198 20129 39564 40122 7//// 8//// 333 8//// 8//// 8//// |
| 2009-06-24T15:00 | 60 | 10 | 21.5 | 12.8 | 955 | 1011 | 24159 44/// /0610 10215 20128 39553 40107 7//// 8//// 333 8//// 8//// 8//// |
| 2009-06-24T18:00 | 60 | 15 | 19.9 | 12.3 | 955 | 1011 | 24189 44/// /0615 10199 20123 39554 40111 7//// 8//// 333 8//// 8//// 8//// |
| 2009-06-24T21:00 | 40 | 5 | 16.1 | 12.2 | 956 | 1013 | 24219 44/// /0405 10161 20122 39562 40128 7//// 8//// 333 8//// 8//// 8//// |
| 2009-06-25T00:00 | 50 | 3 | 14.2 | 12.1 | 956 | 1013 | 25009 44/// /0503 10142 20121 39558 40127 7//// 8//// 333 8//// 8//// 8//// |
| 2009-06-25T03:00 | 210 | 2 | 12.2 | 11.7 | 955 | 1013 | 25039 44/// /2102 10122 20117 39554 40127 7//// 8//// 333 8//// 8//// 8//// |
| 2009-06-25T06:00 | 210 | 1 | 13.7 | 12.3 | 955 | 1012 | 25069 44/// /2101 10137 20123 39554 40124 7//// 8//// 333 8//// 8//// 8//// |
| 2009-06-25T09:00 | 350 | 3 | 16.7 | 13.1 | 955 | 1012 | 25099 44/// /3503 10167 20131 39554 40118 7//// 8//// 333 8//// 8//// 8//// |
| 2009-06-25T12:00 | 180 | 1 | 20.3 | 14.3 | 954 | 1010 | 25129 44/// /1801 10203 20143 39544 40100 7//// 8//// 333 8//// 8//// 8//// |
| 2009-06-25T15:00 | 350 | 3 | 22.0 | 14.6 | 953 | 1008 | 25159 44/// /3503 10220 20146 39530 40082 7//// 8//// 333 8//// 8//// 8//// |
| 2009-06-25T18:00 | 330 | 6 | 21.0 | 15.1 | 953 | 1008 | 25189 44/// /3306 10210 20151 39529 40083 7//// 8//// 333 8//// 8//// 8//// |
| 2009-06-25T21:00 | 210 | 1 | 17.1 | 14.7 | 953 | 1010 | 25219 44/// /2101 10171 20147 39534 40096 7//// 8//// 333 8//// 8//// 8//// |
| 2009-06-26T00:00 | 90 | 1 | 15.1 | 14.1 | 954 | 1010 | 26009 44/// /0901 10151 20141 39535 40101 7//// 8//// 333 8//// 8//// 8//// |
| 2009-06-26T03:00 | 140 | 1 | 14.9 | 14.2 | 954 | 1010 | 26039 44/// /1401 10149 20142 39536 40103 7//// 8//// 333 8//// 8//// 8//// |
| 2009-06-26T06:00 | 190 | 1 | 16.5 | 15.1 | 954 | 1011 | 26069 44/// /1901 10165 20151 39542 40106 7//// 8//// 333 8//// 8//// 8//// |
| 2009-06-26T09:00 | 280 | 3 | 14.6 | 14.0 | 956 | 1012 | 26099 44/// /2803 10146 20140 39555 40123 7//// 8//// 333 8//// 8//// 8//// |
| 2009-06-26T12:00 | 250 | 3 | 21.0 | 16.7 | 955 | 1010 | 26129 44/// /2503 10210 20167 39546 40101 7//// 8//// 333 8//// 8//// 8//// |
| 2009-06-26T15:00 | 270 | 4 | 20.7 | 15.5 | 954 | 1009 | 26159 44/// /2704 10207 20155 39536 40091 7//// 8//// 333 8//// 8//// 8//// |
| 2009-06-26T18:00 | 150 | 2 | 16.3 | 15.4 | 955 | 1012 | 26189 44/// /1502 10163 20154 39553 40118 7//// 8//// 333 8//// 8//// 8//// |
| 2009-06-26T21:00 | 210 | 3 | 15.3 | 14.4 | 957 | 1013 | 26219 44/// /2103 10153 20144 39566 40134 7//// 8//// 333 8//// 8//// 8//// |
| 2009-06-27T00:00 | 260 | 3 | 15.0 | 13.9 | 957 | 1014 | 27009 44/// /2603 10150 20139 39572 40141 7//// 8//// 333 8//// 8//// 8//// |
| 2009-06-27T03:00 | 200 | 4 | 14.6 | 13.4 | 957 | 1014 | 27039 44/// /2004 10146 20134 39572 40141 7//// 8//// 333 8//// 8//// 8//// |
| 2009-06-27T06:00 | 220 | 4 | 15.6 | 14.0 | 958 | 1014 | 27069 44/// /2204 10156 20140 39576 40144 7//// 8//// 333 8//// 8//// 8//// |
| 2009-06-27T09:00 | 210 | 2 | 18.9 | 14.3 | 958 | 1014 | 27099 44/// /2102 10189 20143 39579 40140 7//// 8//// 333 8//// 8//// 8//// |
| 2009-06-27T12:00 | 320 | 5 | 22.4 | 15.4 | 958 | 1013 | 27129 44/// /3205 10224 20154 39576 40129 7//// 8//// 333 8//// 8//// 8//// |
| 2009-06-27T15:00 | 350 | 5 | 22.6 | 14.7 | 958 | 1013 | 27159 44/// /3505 10226 20147 39575 40128 7//// 8//// 333 8//// 8//// 8//// |
| 2009-06-27T18:00 | 80 | 12 | 19.7 | 15.0 | 958 | 1014 | 27189 44/// /0812 10197 20150 39577 40136 7//// 8//// 333 8//// 8//// 8//// |
| 2009-06-27T21:00 | 30 | 2 | 16.8 | 15.8 | 959 | 1016 | 27219 44/// /0302 10168 20158 39589 40155 7//// 8//// 333 8//// 8//// 8//// |
| 2009-06-28T00:00 | 210 | 1 | 14.5 | 14.0 | 959 | 1016 | 28009 44/// /2101 10145 20140 39587 40157 7//// 8//// 333 8//// 8//// 8//// |
| 2009-06-28T03:00 | 130 | 0 | 13.7 | 13.7 | 958 | 1015 | 28039 44/// /1300 10137 20137 39582 40154 7//// 8//// 333 8//// 8//// 8//// |
| 2009-06-28T06:00 | 260 | 1 | 14.4 | 14.1 | 958 | 1015 | 28069 44/// /2601 10144 20141 39582 40152 7//// 8//// 333 8//// 8//// 8//// |
| 2009-06-28T09:00 | 40 | 4 | 19.0 | 15.7 | 958 | 1014 | 28099 44/// /0404 10190 20157 39582 40143 7//// 8//// 333 8//// 8//// 8//// |
| 2009-06-28T12:00 | 30 | 4 | 23.0 | 16.5 | 958 | 1013 | 28129 44/// /0304 10230 20165 39576 40128 7//// 8//// 333 8//// 8//// 8//// |
| 2009-06-28T15:00 | 20 | 5 | 25.5 | 13.8 | 957 | 1012 | 28159 44/// /0205 10255 20138 39570 40117 7//// 8//// 333 8//// 8//// 8//// |
| 2009-06-28T18:00 | 20 | 5 | 25.0 | 14.9 | 957 | 1012 | 28189 44/// /0205 10250 20149 39572 40120 7//// 8//// 333 8//// 8//// 8//// |
| 2009-06-28T21:00 | 90 | 1 | 20.6 | 16.6 | 958 | 1014 | 28219 44/// /0901 10206 20166 39584 40142 7//// 8//// 333 8//// 8//// 8//// |
| 2009-06-29T00:00 | 200 | 0 | 17.1 | 15.1 | 959 | 1015 | 29009 44/// /2000 10171 20151 39588 40153 7//// 8//// 333 8//// 8//// 8//// |
| 2009-06-29T03:00 | 160 | 0 | 14.3 | 13.8 | 959 | 1016 | 29039 44/// /1600 10143 20138 39593 40164 7//// 8//// 333 8//// 8//// 8//// |
| 2009-06-29T06:00 | 190 | 1 | 16.8 | 15.0 | 960 | 1016 | 29069 44/// /1901 10168 20150 39598 40164 7//// 8//// 333 8//// 8//// 8//// |
| 2009-06-29T09:00 | 360 | 3 | 22.1 | 17.4 | 960 | 1015 | 29099 44/// /3603 10221 20174 39599 40154 7//// 8//// 333 8//// 8//// 8//// |
| 2009-06-29T12:00 | 0 | 5 | 26.1 | 16.5 | 960 | 1014 | 29129 44/// /0005 10261 20165 39595 40142 7//// 8//// 333 8//// 8//// 8//// |
| 2009-06-29T15:00 | 20 | 6 | 28.2 | 16.1 | 959 | 1013 | 29159 44/// /0206 10282 20161 39590 40133 7//// 8//// 333 8//// 8//// 8//// |
| 2009-06-29T18:00 | 20 | 4 | 23.5 | 18.1 | 960 | 1015 | 29189 44/// /0204 10235 20181 39596 40148 7//// 8//// 333 8//// 8//// 8//// |
| 2009-06-29T21:00 | 80 | 1 | 19.6 | 17.0 | 961 | 1017 | 29219 44/// /0801 10196 20170 39611 40172 7//// 8//// 333 8//// 8//// 8//// |
| 2009-06-30T00:00 | 0 | 0 | 16.6 | 15.7 | 961 | 1018 | 30009 44/// /0000 10166 20157 39611 40178 7//// 8//// 333 8//// 8//// 8//// |
| 2009-06-30T03:00 | 120 | 2 | 15.0 | 14.4 | 961 | 1018 | 30039 44/// /1202 10150 20144 39614 40185 7//// 8//// 333 8//// 8//// 8//// |
| 2009-06-30T06:00 | 50 | 0 | 17.3 | 15.9 | 962 | 1018 | 30069 44/// /0500 10173 20159 39619 40185 7//// 8//// 333 8//// 8//// 8//// |
| 2009-06-30T09:00 | 20 | 4 | 23.0 | 18.1 | 962 | 1018 | 30099 44/// /0204 10230 20181 39623 40178 7//// 8//// 333 8//// 8//// 8//// |
| 2009-06-30T12:00 | 10 | 6 | 26.6 | 15.4 | 962 | 1016 | 30129 44/// /0106 10266 20154 39617 40164 7//// 8//// 333 8//// 8//// 8//// |
| 2009-06-30T15:00 | 20 | 7 | 27.7 | 14.9 | 961 | 1016 | 30159 44/// /0207 10277 20149 39611 40156 7//// 8//// 333 8//// 8//// 8//// |
| 2009-06-30T18:00 | 50 | 4 | 26.2 | 16.8 | 961 | 1016 | 30189 44/// /0504 10262 20168 39614 40162 7//// 8//// 333 8//// 8//// 8//// |
| 2009-06-30T21:00 | 0 | 0 | 20.4 | 18.0 | 963 | 1019 | 30219 44/// /0000 10204 20180 39628 40189 7//// 8//// 333 8//// 8//// 8//// |
